C.kormakitis, Cyprus
Current Conditions -  °F | °C
As of 1:50 AM on Sunday 26 Oct 2014 (Local Time) from LCEN Reporting Station
Thunderstorm Thunderstorm  
Wind Chill: 64°   Ceiling: 10000
Heat Index: 64°   Visibility: 6mi
Dew Point: 59°   Wind: 7mph
Humidity: 83%   Direction: 210°SSW
Pressure: 29.94"   Gusts: NA
Location:  35.35°N, 32.95°E
Report Text: LCEN 252250Z 21006KT 9999 TS SCT025CB SCT030 BKN100 18/15 Q1014 RETSRA NOSIG
Loading
Personal Weather Stations






























Interactive Weather Map
Tropical Storm Tracking
New forecast layout! Learn more

10-Day Weather Forecast

Advertisements
Track Severe Weather on mobile